createdAt,value
2018-04-06T00:01:26.098Z,101070.21
2018-04-06T00:03:54.453Z,101075.59
2018-04-06T00:06:23.514Z,101081.97
2018-04-06T00:08:51.938Z,101075.58
2018-04-06T00:11:21.030Z,101076.81
2018-04-06T00:13:49.387Z,101074.87
2018-04-06T00:16:18.278Z,101068.25
2018-04-06T00:18:46.624Z,101091.49
2018-04-06T00:21:15.874Z,101097.33
2018-04-06T00:23:44.297Z,101089.73
2018-04-06T00:26:13.420Z,101100.77
2018-04-06T00:28:41.952Z,101102.65
2018-04-06T00:31:10.317Z,101106.41
2018-04-06T00:33:38.654Z,101107.05
2018-04-06T00:36:07.001Z,101097.53
2018-04-06T00:38:35.346Z,101103.42
2018-04-06T00:41:04.605Z,101114.03
2018-04-06T00:43:33.582Z,101109.02
2018-04-06T00:46:02.115Z,101127.86
2018-04-06T00:48:30.474Z,101132.06
2018-04-06T00:50:58.825Z,101132.15
2018-04-06T00:53:39.345Z,101147.83
2018-04-06T00:56:08.870Z,101176.99
2018-04-06T00:58:37.214Z,101161.33
2018-04-06T01:01:05.560Z,101140.00
2018-04-06T01:03:35.078Z,101144.24
2018-04-06T01:06:04.104Z,101157.50
2018-04-06T01:08:32.478Z,101167.28
2018-04-06T01:11:02.034Z,101166.16
2018-04-06T01:13:30.609Z,101159.94
2018-04-06T01:15:58.988Z,101146.55
2018-04-06T01:18:27.352Z,101184.51
2018-04-06T01:20:55.938Z,101184.23
2018-04-06T01:23:25.244Z,101193.52
2018-04-06T01:25:53.612Z,101189.32
2018-04-06T01:28:21.949Z,101189.87
2018-04-06T01:30:50.385Z,101192.82
2018-04-06T01:33:18.965Z,101200.90
2018-04-06T01:35:47.310Z,101203.85
2018-04-06T01:38:16.733Z,101212.03
2018-04-06T01:40:45.075Z,101213.33
2018-04-06T01:43:14.113Z,101228.98
2018-04-06T01:45:43.299Z,101239.99
2018-04-06T01:48:13.030Z,101245.16
2018-04-06T01:50:42.031Z,101235.49
2018-04-06T01:53:10.423Z,101270.44
2018-04-06T01:55:38.770Z,101272.63
2018-04-06T01:58:07.662Z,101281.92
2018-04-06T02:00:36.967Z,101286.27
2018-04-06T02:03:05.698Z,101276.59
2018-04-06T02:05:34.106Z,101288.33
2018-04-06T02:08:02.841Z,101287.17
2018-04-06T02:10:32.039Z,101299.05
2018-04-06T02:13:01.607Z,101299.55
2018-04-06T02:15:30.076Z,101311.38
2018-04-06T02:17:58.413Z,101313.12
2018-04-06T02:20:26.926Z,101325.78
2018-04-06T02:22:55.278Z,101321.64
2018-04-06T02:25:24.323Z,101309.52
2018-04-06T02:27:52.953Z,101310.92
2018-04-06T02:30:22.055Z,101330.74
2018-04-06T02:32:50.568Z,101314.36
2018-04-06T02:35:18.918Z,101329.63
2018-04-06T02:37:47.269Z,101310.36
2018-04-06T02:40:16.185Z,101315.41
2018-04-06T02:42:44.570Z,101337.67
2018-04-06T02:45:12.929Z,101328.91
2018-04-06T02:47:41.720Z,101331.89
2018-04-06T02:50:10.338Z,101338.66
2018-04-06T02:52:38.706Z,101337.83
2018-04-06T02:55:08.129Z,101355.55
2018-04-06T02:57:36.498Z,101353.93
2018-04-06T03:00:06.447Z,101359.84
2018-04-06T03:02:36.787Z,101364.05
2018-04-06T03:05:05.218Z,101373.37
2018-04-06T03:07:33.740Z,101372.99
2018-04-06T03:10:02.086Z,101375.98
2018-04-06T03:12:30.770Z,101383.92
2018-04-06T03:15:00.342Z,101386.47
2018-04-06T03:17:29.695Z,101392.77
2018-04-06T03:19:58.364Z,101381.86
2018-04-06T03:22:26.723Z,101395.25
2018-04-06T03:24:55.183Z,101391.97
2018-04-06T03:27:24.036Z,101394.50
2018-04-06T03:29:53.001Z,101402.43
2018-04-06T03:32:21.354Z,101401.67
2018-04-06T03:34:49.700Z,101411.78
2018-04-06T03:37:18.638Z,101404.23
2018-04-06T03:39:47.101Z,101422.73
2018-04-06T03:42:15.504Z,101405.11
2018-04-06T03:44:43.850Z,101416.02
2018-04-06T03:47:13.220Z,101414.34
2018-04-06T03:49:42.143Z,101413.50
2018-04-06T03:52:10.589Z,101429.02
2018-04-06T03:54:39.023Z,101423.16
2018-04-06T03:57:07.768Z,101440.36
2018-04-06T03:59:36.155Z,101444.09
2018-04-06T04:02:05.648Z,101432.31
2018-04-06T04:04:34.501Z,101444.89
2018-04-06T04:07:03.465Z,101453.25
2018-04-06T04:09:31.871Z,101447.83
2018-04-06T04:12:01.353Z,101455.77
2018-04-06T04:14:30.174Z,101459.92
2018-04-06T04:16:58.568Z,101454.89
2018-04-06T04:19:27.445Z,101455.30
2018-04-06T04:21:56.188Z,101454.47
2018-04-06T04:24:25.362Z,101467.06
2018-04-06T04:26:53.718Z,101453.17
2018-04-06T04:29:22.197Z,101465.80
2018-04-06T04:31:51.116Z,101467.06
2018-04-06T04:34:19.516Z,101477.97
2018-04-06T04:36:48.112Z,101489.34
2018-04-06T04:39:16.492Z,101510.71
2018-04-06T04:41:44.841Z,101511.13
2018-04-06T04:44:13.301Z,101494.72
2018-04-06T04:46:42.711Z,101505.22
2018-04-06T04:49:11.134Z,101503.53
2018-04-06T04:51:39.504Z,101509.80
2018-04-06T04:54:10.379Z,101528.30
2018-04-06T04:56:39.228Z,101512.31
2018-04-06T04:59:08.303Z,101515.64
2018-04-06T05:01:36.999Z,101532.84
2018-04-06T05:04:05.355Z,101518.11
2018-04-06T05:06:34.325Z,101529.75
2018-04-06T05:09:03.222Z,101563.80
2018-04-06T05:11:31.879Z,101531.89
2018-04-06T05:14:00.316Z,101528.16
2018-04-06T05:16:29.282Z,101537.35
2018-04-06T05:18:57.805Z,101546.43
2018-04-06T05:21:26.922Z,101541.36
2018-04-06T05:23:55.754Z,101555.21
2018-04-06T05:26:24.719Z,101542.57
2018-04-06T05:28:53.141Z,101536.69
2018-04-06T05:31:22.046Z,101553.88
2018-04-06T05:33:50.395Z,101552.58
2018-04-06T05:36:18.762Z,101566.90
2018-04-06T05:38:47.587Z,101577.36
2018-04-06T05:41:16.253Z,101564.75
2018-04-06T05:43:45.403Z,101583.66
2018-04-06T05:46:13.752Z,101558.87
2018-04-06T05:48:42.245Z,101573.87
2018-04-06T05:51:10.598Z,101567.86
2018-04-06T05:53:39.406Z,101574.12
2018-04-06T05:56:07.900Z,101571.98
2018-04-06T05:58:36.261Z,101580.72
2018-04-06T06:01:04.826Z,101604.59
2018-04-06T06:03:33.196Z,101579.36
2018-04-06T06:06:01.552Z,101583.48
2018-04-06T06:08:30.182Z,101582.63
2018-04-06T06:10:58.534Z,101612.40
2018-04-06T06:13:27.033Z,101622.15
2018-04-06T06:15:55.798Z,101597.72
2018-04-06T06:18:24.879Z,101603.19
2018-04-06T06:20:53.223Z,101620.80
2018-04-06T06:23:21.594Z,101606.45
2018-04-06T06:25:50.838Z,101628.70
2018-04-06T06:28:19.968Z,101616.46
2018-04-06T06:30:48.535Z,101625.66
2018-04-06T06:33:17.249Z,101613.81
2018-04-06T06:35:47.068Z,101620.88
2018-04-06T06:38:15.417Z,101623.03
2018-04-06T06:40:44.134Z,101627.23
2018-04-06T06:43:14.070Z,101620.35
2018-04-06T06:45:42.540Z,101632.45
2018-04-06T06:48:11.893Z,101619.04
2018-04-06T06:50:40.471Z,101631.56
2018-04-06T06:53:09.177Z,101626.52
2018-04-06T06:55:37.514Z,101638.67
2018-04-06T06:58:06.023Z,101643.33
2018-04-06T07:00:34.564Z,101639.08
2018-04-06T07:03:02.929Z,101627.25
2018-04-06T07:05:31.345Z,101635.61
2018-04-06T07:08:00.199Z,101618.31
2018-04-06T07:10:28.799Z,101630.92
2018-04-06T07:12:57.617Z,101656.55
2018-04-06T07:15:26.213Z,101649.66
2018-04-06T07:17:54.614Z,101660.55
2018-04-06T07:20:22.958Z,101613.39
2018-04-06T07:22:51.511Z,101632.82
2018-04-06T07:25:20.198Z,101612.13
2018-04-06T07:27:48.911Z,101632.19
2018-04-06T07:30:17.540Z,101661.16
2018-04-06T07:32:46.210Z,101627.75
2018-04-06T07:35:15.151Z,101641.11
2018-04-06T07:37:43.525Z,101643.37
2018-04-06T07:40:12.134Z,101635.20
2018-04-06T07:42:40.507Z,101634.65
2018-04-06T07:45:08.883Z,101653.48
2018-04-06T07:47:37.245Z,101628.67
2018-04-06T07:50:05.621Z,101650.94
2018-04-06T07:52:34.000Z,101647.92
2018-04-06T07:55:02.453Z,101640.41
2018-04-06T07:57:31.084Z,101653.34
2018-04-06T08:00:00.187Z,101650.28
2018-04-06T08:02:29.889Z,101644.30
2018-04-06T08:04:58.322Z,101645.16
2018-04-06T08:07:27.197Z,101647.31
2018-04-06T08:09:57.407Z,101653.51
2018-04-06T08:12:26.494Z,101654.00
2018-04-06T08:17:30.520Z,101660.18
2018-04-06T08:19:59.611Z,101659.06
2018-04-06T08:22:29.750Z,101662.65
2018-04-06T08:24:58.109Z,101660.53
2018-04-06T08:27:27.422Z,101671.52
2018-04-06T08:29:56.508Z,101707.17
2018-04-06T08:32:25.274Z,101691.25
2018-04-06T08:34:53.730Z,101693.16
2018-04-06T08:37:22.070Z,101699.98
2018-04-06T08:39:50.775Z,101689.38
2018-04-06T08:42:19.509Z,101704.56
2018-04-06T08:44:47.925Z,101685.97
2018-04-06T08:47:16.929Z,101703.64
2018-04-06T08:49:45.288Z,101715.25
2018-04-06T08:52:14.009Z,101719.59
2018-04-06T08:54:42.409Z,101725.84
2018-04-06T08:57:11.489Z,101718.19
2018-04-06T08:59:39.840Z,101720.52
2018-04-06T09:02:08.210Z,101721.67
2018-04-06T09:04:37.230Z,101730.99
2018-04-06T09:07:05.605Z,101742.33
2018-04-06T09:09:33.962Z,101768.29
2018-04-06T09:12:02.497Z,101768.20
2018-04-06T09:14:31.406Z,101753.56
2018-04-06T09:16:59.925Z,101751.33
2018-04-06T09:19:29.183Z,101752.74
2018-04-06T09:21:57.840Z,101731.21
2018-04-06T09:24:26.959Z,101724.52
2018-04-06T09:26:55.355Z,101754.77
2018-04-06T09:29:23.708Z,101730.09
2018-04-06T09:31:52.348Z,101773.18
2018-04-06T09:34:20.741Z,101751.66
2018-04-06T09:36:49.370Z,101783.95
2018-04-06T09:39:18.028Z,101755.19
2018-04-06T09:41:46.381Z,101760.69
2018-04-06T09:44:14.802Z,101799.14
2018-04-06T09:46:43.160Z,101776.42
2018-04-06T09:49:11.523Z,101775.58
2018-04-06T09:51:40.098Z,101767.86
2018-04-06T09:54:08.833Z,101779.39
2018-04-06T09:56:37.585Z,101778.52
2018-04-06T09:59:06.046Z,101784.66
2018-04-06T10:01:37.920Z,101782.42
2018-04-06T10:04:06.318Z,101792.00
2018-04-06T10:06:35.350Z,101788.83
2018-04-06T10:09:04.017Z,101781.64
2018-04-06T10:11:32.713Z,101779.02
2018-04-06T10:14:01.065Z,101777.70
2018-04-06T10:16:29.929Z,101827.15
2018-04-06T10:18:58.776Z,101798.80
2018-04-06T10:21:27.458Z,101794.30
2018-04-06T10:23:55.856Z,101807.05
2018-04-06T10:26:24.318Z,101777.08
2018-04-06T10:28:52.698Z,101799.38
2018-04-06T10:31:21.129Z,101777.33
2018-04-06T10:33:49.769Z,101772.59
2018-04-06T10:36:18.123Z,101766.80
2018-04-06T10:38:50.214Z,101790.78
2018-04-06T10:41:19.017Z,101786.50
2018-04-06T10:43:47.914Z,101797.67
2018-04-06T10:46:16.589Z,101769.73
2018-04-06T10:48:45.030Z,101771.11
2018-04-06T10:51:13.391Z,101774.56
2018-04-06T10:53:42.217Z,101784.58
2018-04-06T10:56:10.584Z,101785.70
2018-04-06T10:58:40.784Z,101774.43
2018-04-06T11:01:09.095Z,101776.14
2018-04-06T11:03:40.686Z,101778.94
2018-04-06T11:06:12.685Z,101793.80
2018-04-06T11:11:18.717Z,101783.25
2018-04-06T11:13:47.562Z,101786.77
2018-04-06T11:16:16.178Z,101794.30
2018-04-06T11:18:44.798Z,101806.47
2018-04-06T11:21:14.162Z,101774.80
2018-04-06T11:23:43.985Z,101808.38
2018-04-06T11:26:12.697Z,101802.34
2018-04-06T11:28:41.557Z,101789.75
2018-04-06T11:31:10.289Z,101791.84
2018-04-06T11:33:40.673Z,101802.89
2018-04-06T11:36:10.131Z,101804.91
2018-04-06T11:38:39.021Z,101836.16
2018-04-06T11:41:08.174Z,101806.17
2018-04-06T11:43:36.660Z,101797.09
2018-04-06T11:46:13.991Z,101822.81
2018-04-06T11:48:42.732Z,101827.40
2018-04-06T11:51:11.667Z,101818.41
2018-04-06T11:53:40.049Z,101814.42
2018-04-06T11:56:08.407Z,101826.77
2018-04-06T11:58:36.766Z,101791.94
2018-04-06T12:01:05.556Z,101819.47
2018-04-06T12:03:34.569Z,101826.80
2018-04-06T12:06:03.285Z,101810.41
2018-04-06T12:08:32.004Z,101849.98
2018-04-06T12:11:00.621Z,101868.25
2018-04-06T12:13:29.262Z,101842.24
2018-04-06T12:15:57.622Z,101852.02
2018-04-06T12:18:25.989Z,101835.14
2018-04-06T12:20:54.347Z,101840.81
2018-04-06T12:23:22.722Z,101830.33
2018-04-06T12:25:51.449Z,101874.55
2018-04-06T12:28:20.182Z,101836.93
2018-04-06T12:30:48.815Z,101857.53
2018-04-06T12:33:17.502Z,101853.52
2018-04-06T12:35:45.853Z,101840.06
2018-04-06T12:38:14.568Z,101839.64
2018-04-06T12:40:43.258Z,101856.75
2018-04-06T12:43:12.589Z,101841.23
2018-04-06T12:45:40.946Z,101868.77
2018-04-06T12:48:09.395Z,101861.77
2018-04-06T12:50:37.740Z,101871.52
2018-04-06T12:53:07.826Z,101889.70
2018-04-06T12:55:36.262Z,101873.34
2018-04-06T12:58:04.642Z,101874.72
2018-04-06T13:00:33.015Z,101879.52
2018-04-06T13:03:01.470Z,101888.53
2018-04-06T13:05:29.809Z,101896.35
2018-04-06T13:07:58.428Z,101900.45
2018-04-06T13:10:26.866Z,101893.14
2018-04-06T13:12:55.234Z,101877.36
2018-04-06T13:15:24.365Z,101891.84
2018-04-06T13:17:52.730Z,101896.64
2018-04-06T13:20:21.441Z,101882.44
2018-04-06T13:22:50.674Z,101864.44
2018-04-06T13:25:22.610Z,101897.24
2018-04-06T13:27:51.156Z,101903.91
2018-04-06T13:30:19.682Z,101913.98
2018-04-06T13:32:48.369Z,101914.59
2018-04-06T13:35:16.749Z,101892.05
2018-04-06T13:37:45.114Z,101913.98
2018-04-06T13:40:13.473Z,101900.01
2018-04-06T13:42:41.855Z,101908.04
2018-04-06T13:45:10.288Z,101937.88
2018-04-06T13:47:38.720Z,101933.78
2018-04-06T13:50:07.087Z,101930.41
2018-04-06T13:52:35.447Z,101925.87
2018-04-06T13:55:04.104Z,101932.28
2018-04-06T13:57:32.839Z,101924.83
2018-04-06T14:00:01.637Z,101921.63
2018-04-06T14:02:31.125Z,101930.72
2018-04-06T14:04:59.771Z,101943.70
2018-04-06T14:07:28.318Z,101943.41
2018-04-06T14:09:58.430Z,101955.24
2018-04-06T14:12:27.218Z,101957.27
2018-04-06T14:14:56.187Z,101962.33
2018-04-06T14:17:25.293Z,101955.89
2018-04-06T14:19:53.673Z,101946.04
2018-04-06T14:22:22.049Z,101964.20
2018-04-06T14:24:50.702Z,101964.91
2018-04-06T14:27:19.494Z,101963.75
2018-04-06T14:29:48.386Z,101976.51
2018-04-06T14:32:17.086Z,101974.00
2018-04-06T14:34:45.480Z,101978.83
2018-04-06T14:37:13.870Z,101982.95
2018-04-06T14:39:42.617Z,101975.99
2018-04-06T14:42:11.154Z,101986.34
2018-04-06T14:44:39.549Z,101996.81
2018-04-06T14:47:07.939Z,101983.40
2018-04-06T14:49:36.435Z,101997.88
2018-04-06T14:52:04.804Z,102014.45
2018-04-06T14:54:35.238Z,102006.33
2018-04-06T14:57:03.599Z,102015.90
2018-04-06T14:59:35.626Z,102010.23
2018-04-06T15:02:06.397Z,102009.96
2018-04-06T15:04:34.830Z,102003.66
2018-04-06T15:07:04.758Z,102005.55
2018-04-06T15:09:35.949Z,102013.49
2018-04-06T15:12:04.371Z,102019.81
2018-04-06T15:14:33.738Z,102021.48
2018-04-06T15:17:02.173Z,102016.25
2018-04-06T15:19:30.845Z,102019.19
2018-04-06T15:22:03.094Z,102032.72
2018-04-06T15:24:32.256Z,102017.25
2018-04-06T15:27:00.765Z,102030.88
2018-04-06T15:29:29.252Z,102032.69
2018-04-06T15:31:57.813Z,102041.16
2018-04-06T15:34:26.219Z,102036.38
2018-04-06T15:36:54.574Z,102054.64
2018-04-06T15:39:22.958Z,102061.81
2018-04-06T15:41:51.323Z,102058.86
2018-04-06T15:44:19.712Z,102058.84
2018-04-06T15:46:48.199Z,102082.13
2018-04-06T15:49:16.605Z,102062.20
2018-04-06T15:51:44.958Z,102071.78
2018-04-06T15:54:13.553Z,102101.90
2018-04-06T15:56:41.902Z,102092.08
2018-04-06T15:59:10.255Z,102084.45
2018-04-06T16:01:38.837Z,102097.92
2018-04-06T16:04:07.936Z,102096.66
2018-04-06T16:06:36.699Z,102121.34
2018-04-06T16:09:09.382Z,102113.27
2018-04-06T16:11:37.734Z,102120.80
2018-04-06T16:14:06.374Z,102127.63
2018-04-06T16:16:34.723Z,102123.35
2018-04-06T16:19:03.082Z,102123.11
2018-04-06T16:21:31.438Z,102151.70
2018-04-06T16:24:00.073Z,102135.13
2018-04-06T16:26:28.787Z,102137.03
2018-04-06T16:28:57.138Z,102143.17
2018-04-06T16:31:25.933Z,102132.84
2018-04-06T16:33:54.343Z,102140.55
2018-04-06T16:36:22.696Z,102139.41
2018-04-06T16:38:51.074Z,102142.02
2018-04-06T16:41:19.418Z,102142.27
2018-04-06T16:43:48.087Z,102135.20
2018-04-06T16:46:16.719Z,102148.02
2018-04-06T16:48:45.598Z,102161.66
2018-04-06T16:51:13.955Z,102154.89
2018-04-06T16:53:42.305Z,102158.76
2018-04-06T16:56:10.655Z,102151.75
2018-04-06T16:58:39.021Z,102167.91
2018-04-06T17:01:07.726Z,102170.20
2018-04-06T17:03:36.435Z,102179.22
2018-04-06T17:06:05.131Z,102167.89
2018-04-06T17:08:33.750Z,102175.55
2018-04-06T17:11:02.092Z,102185.69
2018-04-06T17:13:30.967Z,102176.80
2018-04-06T17:15:59.472Z,102174.74
2018-04-06T17:18:27.831Z,102172.27
2018-04-06T17:20:56.230Z,102180.43
2018-04-06T17:23:24.719Z,102183.44
2018-04-06T17:25:53.564Z,102186.44
2018-04-06T17:28:21.921Z,102197.47
2018-04-06T17:30:50.285Z,102195.44
2018-04-06T17:33:18.649Z,102206.42
2018-04-06T17:35:47.037Z,102203.92
2018-04-06T17:38:15.405Z,102205.23
2018-04-06T17:40:43.757Z,102207.01
2018-04-06T17:43:12.109Z,102202.84
2018-04-06T17:45:40.758Z,102207.56
2018-04-06T17:48:09.513Z,102214.34
2018-04-06T17:50:38.064Z,102229.99
2018-04-06T17:53:06.714Z,102237.20
2018-04-06T17:55:35.413Z,102240.61
2018-04-06T17:58:04.030Z,102237.70
2018-04-06T18:00:32.505Z,102242.41
2018-04-06T18:03:00.880Z,102247.97
2018-04-06T18:05:29.612Z,102256.01
2018-04-06T18:07:57.972Z,102257.77
2018-04-06T18:10:26.354Z,102259.03
2018-04-06T18:12:55.064Z,102267.45
2018-04-06T18:15:23.439Z,102271.70
2018-04-06T18:17:51.980Z,102282.24
2018-04-06T18:20:20.712Z,102286.48
2018-04-06T18:22:50.572Z,102286.94
2018-04-06T18:25:19.072Z,102285.67
2018-04-06T18:27:47.478Z,102283.59
2018-04-06T18:30:15.867Z,102284.47
2018-04-06T18:32:44.273Z,102289.55
2018-04-06T18:35:12.639Z,102279.47
2018-04-06T18:37:41.571Z,102289.58
2018-04-06T18:40:09.938Z,102284.55
2018-04-06T18:42:38.309Z,102284.16
2018-04-06T18:45:07.456Z,102295.53
2018-04-06T18:47:35.817Z,102297.24
2018-04-06T18:50:04.184Z,102289.66
2018-04-06T18:52:32.658Z,102302.74
2018-04-06T18:55:09.992Z,102296.03
2018-04-06T18:57:44.879Z,102308.70
2018-04-06T19:00:13.590Z,102301.56
2018-04-06T19:02:43.792Z,102297.38
2018-04-06T19:05:13.378Z,102298.70
2018-04-06T19:07:41.754Z,102299.53
2018-04-06T19:10:10.487Z,102306.70
2018-04-06T19:12:38.958Z,102300.83
2018-04-06T19:15:07.322Z,102306.75
2018-04-06T19:17:36.022Z,102313.06
2018-04-06T19:20:04.393Z,102318.97
2018-04-06T19:22:34.399Z,102318.94
2018-04-06T19:25:03.083Z,102316.40
2018-04-06T19:27:32.179Z,102311.36
2018-04-06T19:30:00.804Z,102305.48
2018-04-06T19:32:29.166Z,102305.48
2018-04-06T19:34:57.626Z,102310.96
2018-04-06T19:37:27.074Z,102304.66
2018-04-06T19:39:57.706Z,102306.79
2018-04-06T19:42:26.109Z,102308.47
2018-04-06T19:44:54.500Z,102318.17
2018-04-06T19:47:23.217Z,102318.17
2018-04-06T19:49:51.574Z,102319.02
2018-04-06T19:52:19.936Z,102320.31
2018-04-06T19:54:49.143Z,102320.30
2018-04-06T19:57:17.791Z,102325.37
2018-04-06T19:59:46.148Z,102332.94
2018-04-06T20:02:14.865Z,102328.73
2018-04-06T20:04:43.580Z,102329.16
2018-04-06T20:07:12.886Z,102331.30
2018-04-06T20:09:41.983Z,102340.55
2018-04-06T20:12:11.501Z,102342.69
2018-04-06T20:14:41.720Z,102352.78
2018-04-06T20:17:10.510Z,102351.53
2018-04-06T20:19:38.901Z,102352.40
2018-04-06T20:22:07.267Z,102359.12
2018-04-06T20:24:36.537Z,102357.02
2018-04-06T20:27:04.910Z,102357.45
2018-04-06T20:29:33.721Z,102370.09
2018-04-06T20:32:03.644Z,102374.71
2018-04-06T20:34:32.276Z,102374.73
2018-04-06T20:37:00.808Z,102373.05
2018-04-06T20:39:29.584Z,102369.27
2018-04-06T20:41:58.124Z,102370.08
2018-04-06T20:44:26.488Z,102371.78
2018-04-06T20:46:55.812Z,102370.53
2018-04-06T20:49:24.258Z,102378.92
2018-04-06T20:51:52.991Z,102378.52
2018-04-06T20:54:22.068Z,102385.66
2018-04-06T20:56:52.576Z,102394.52
2018-04-06T20:59:21.103Z,102394.94
2018-04-06T21:01:49.521Z,102397.02
2018-04-06T21:04:20.984Z,102399.98
2018-04-06T21:06:50.173Z,102407.55
2018-04-06T21:09:18.531Z,102402.07
2018-04-06T21:11:47.594Z,102408.78
2018-04-06T21:14:16.011Z,102404.59
2018-04-06T21:16:44.370Z,102401.64
2018-04-06T21:19:12.899Z,102403.34
2018-04-06T21:21:41.285Z,102402.09
2018-04-06T21:24:10.437Z,102406.28
2018-04-06T21:26:38.807Z,102403.33
2018-04-06T21:29:07.428Z,102402.91
2018-04-06T21:31:36.200Z,102400.38
2018-04-06T21:34:04.525Z,102412.58
2018-04-06T21:36:32.885Z,102409.63
2018-04-06T21:39:01.326Z,102407.10
2018-04-06T21:41:29.955Z,102405.87
2018-04-06T21:43:58.367Z,102410.91
2018-04-06T21:46:27.500Z,102416.36
2018-04-06T21:48:56.696Z,102415.97
2018-04-06T21:51:25.464Z,102416.37
2018-04-06T21:53:54.077Z,102422.69
2018-04-06T21:56:23.086Z,102423.95
2018-04-06T21:58:51.489Z,102427.31
2018-04-06T22:01:19.844Z,102426.47
2018-04-06T22:03:48.309Z,102422.67
2018-04-06T22:06:16.650Z,102427.72
2018-04-06T22:08:45.050Z,102432.76
2018-04-06T22:11:13.482Z,102427.70
2018-04-06T22:13:41.975Z,102416.37
2018-04-06T22:16:10.363Z,102421.83
2018-04-06T22:18:38.732Z,102423.10
2018-04-06T22:21:07.418Z,102428.98
2018-04-06T22:23:35.769Z,102425.19
2018-04-06T22:26:04.117Z,102428.11
2018-04-06T22:28:32.470Z,102429.83
2018-04-06T22:31:00.833Z,102429.38
2018-04-06T22:33:29.181Z,102429.39
2018-04-06T22:35:57.530Z,102433.14
2018-04-06T22:38:25.881Z,102439.44
2018-04-06T22:40:54.571Z,102446.14
2018-04-06T22:43:22.923Z,102443.61
2018-04-06T22:48:25.435Z,102453.27
2018-04-06T22:50:53.904Z,102456.61
2018-04-06T22:53:24.070Z,102466.25
2018-04-06T22:55:52.420Z,102461.63
2018-04-06T22:58:20.814Z,102466.67
2018-04-06T23:00:49.169Z,102471.28
2018-04-06T23:03:17.518Z,102471.69
2018-04-06T23:05:46.360Z,102464.95
2018-04-06T23:08:14.715Z,102461.58
2018-04-06T23:10:43.076Z,102462.39
2018-04-06T23:13:11.426Z,102461.53
2018-04-06T23:15:40.077Z,102468.61
2018-04-06T23:18:10.300Z,102469.46
2018-04-06T23:20:38.667Z,102467.32
2018-04-06T23:23:07.823Z,102468.54
2018-04-06T23:25:36.213Z,102473.13
2018-04-06T23:28:04.569Z,102483.20
2018-04-06T23:30:32.964Z,102484.87
2018-04-06T23:33:02.970Z,102487.81
2018-04-06T23:35:31.708Z,102489.49
2018-04-06T23:38:01.245Z,102492.86
2018-04-06T23:40:29.666Z,102495.39
2018-04-06T23:42:58.011Z,102496.64
2018-04-06T23:45:26.681Z,102491.98
2018-04-06T23:47:56.162Z,102494.95
2018-04-06T23:50:24.914Z,102496.59
2018-04-06T23:52:53.341Z,102489.02
2018-04-06T23:55:21.959Z,102490.24
2018-04-06T23:57:50.644Z,102486.86
